createdAt,value
2023-11-01T00:01:54.202Z,98.06
2023-11-01T00:04:17.431Z,98.19
2023-11-01T00:06:40.526Z,97.87
2023-11-01T00:09:03.560Z,97.12
2023-11-01T00:11:26.944Z,98.21
2023-11-01T00:13:50.149Z,98.50
2023-11-01T00:16:14.725Z,98.75
2023-11-01T00:18:37.971Z,97.14
2023-11-01T00:21:01.280Z,97.42
2023-11-01T00:23:24.392Z,97.29
2023-11-01T00:25:47.518Z,98.06
2023-11-01T00:28:10.613Z,97.62
2023-11-01T00:30:33.994Z,97.08
2023-11-01T00:32:58.665Z,96.92
2023-11-01T00:35:02.672Z,96.07
2023-11-01T00:37:07.799Z,96.64
2023-11-01T00:39:11.563Z,97.30
2023-11-01T00:41:16.939Z,97.87
2023-11-01T00:43:19.779Z,98.83
2023-11-01T00:45:29.010Z,98.12
2023-11-01T00:47:44.699Z,98.60
2023-11-01T00:49:49.743Z,98.82
2023-11-01T00:52:00.264Z,98.99
2023-11-01T00:54:09.486Z,98.84
2023-11-01T00:56:13.602Z,99.21
2023-11-01T00:58:30.124Z,98.49
2023-11-01T01:00:34.668Z,99.72
2023-11-01T01:02:44.255Z,99.20
2023-11-01T01:04:52.651Z,99.64
2023-11-01T01:06:59.392Z,99.63
2023-11-01T01:09:08.906Z,98.57
2023-11-01T01:11:21.903Z,98.55
2023-11-01T01:13:30.972Z,99.15
2023-11-01T01:15:47.186Z,99.23
2023-11-01T01:18:09.152Z,97.93
2023-11-01T01:20:18.609Z,98.37
2023-11-01T01:22:25.445Z,98.08
2023-11-01T01:24:34.713Z,99.23
2023-11-01T01:26:39.600Z,99.10
2023-11-01T01:28:47.621Z,98.33
2023-11-01T01:30:58.522Z,97.91
2023-11-01T01:33:10.380Z,97.56
2023-11-01T01:35:17.962Z,98.26
2023-11-01T01:37:24.438Z,98.30
2023-11-01T01:39:30.250Z,97.79
2023-11-01T01:41:53.330Z,97.59
2023-11-01T01:44:16.649Z,98.07
2023-11-01T01:46:39.962Z,98.09
2023-11-01T01:49:03.259Z,98.78
2023-11-01T01:51:14.421Z,98.26
2023-11-01T01:53:26.930Z,98.46
2023-11-01T01:55:31.887Z,98.57
2023-11-01T01:57:41.138Z,98.46
2023-11-01T02:00:05.308Z,98.94
2023-11-01T02:02:35.791Z,99.96
2023-11-01T02:04:58.954Z,99.05
2023-11-01T02:07:23.422Z,99.01
2023-11-01T02:09:27.726Z,99.01
2023-11-01T02:11:37.512Z,98.98
2023-11-01T02:14:00.733Z,99.03
2023-11-01T02:16:24.152Z,99.33
2023-11-01T02:18:26.749Z,98.39
2023-11-01T02:20:30.459Z,99.10
2023-11-01T02:22:35.250Z,99.03
2023-11-01T02:24:39.860Z,98.47
2023-11-01T02:26:43.035Z,98.47
2023-11-01T02:28:46.509Z,98.67
2023-11-01T02:30:49.671Z,98.65
2023-11-01T02:32:53.564Z,97.43
2023-11-01T02:34:55.679Z,97.02
2023-11-01T02:36:58.977Z,97.98
2023-11-01T02:39:01.128Z,98.02
2023-11-01T02:41:06.110Z,97.59
2023-11-01T02:43:09.484Z,97.63
2023-11-01T02:45:13.060Z,98.79
2023-11-01T02:47:16.556Z,98.96
2023-11-01T02:49:19.774Z,98.51
2023-11-01T02:51:23.485Z,97.70
2023-11-01T02:53:26.966Z,97.40
2023-11-01T02:55:30.929Z,98.06
2023-11-01T02:57:36.207Z,98.39
2023-11-01T02:59:39.335Z,99.44
2023-11-01T03:01:43.508Z,98.54
2023-11-01T03:03:46.992Z,98.53
2023-11-01T03:05:50.588Z,98.69
2023-11-01T03:07:54.952Z,97.98
2023-11-01T03:09:57.112Z,98.33
2023-11-01T03:12:00.334Z,97.98
2023-11-01T03:14:04.821Z,97.10
2023-11-01T03:16:07.843Z,97.20
2023-11-01T03:18:10.988Z,96.41
2023-11-01T03:20:14.214Z,96.34
2023-11-01T03:22:19.625Z,97.14
2023-11-01T03:24:23.062Z,96.07
2023-11-01T03:26:26.363Z,95.90
2023-11-01T03:28:29.617Z,96.88
2023-11-01T03:30:34.521Z,96.39
2023-11-01T03:32:37.865Z,96.10
2023-11-01T03:34:41.121Z,95.30
2023-11-01T03:36:44.705Z,96.18
2023-11-01T03:38:48.017Z,94.89
2023-11-01T03:40:51.550Z,94.85
2023-11-01T03:42:54.778Z,95.96
2023-11-01T03:44:57.989Z,96.11
2023-11-01T03:47:02.636Z,96.41
2023-11-01T03:49:06.354Z,95.55
2023-11-01T03:51:09.649Z,95.42
2023-11-01T03:53:14.399Z,95.49
2023-11-01T03:55:17.799Z,95.36
2023-11-01T03:57:20.893Z,96.67
2023-11-01T03:59:23.145Z,95.67
2023-11-01T04:01:26.330Z,95.85
2023-11-01T04:03:31.042Z,97.18
2023-11-01T04:05:34.272Z,96.11
2023-11-01T04:07:36.495Z,96.14
2023-11-01T04:09:39.627Z,95.82
2023-11-01T04:11:43.211Z,96.63
2023-11-01T04:13:46.794Z,95.15
2023-11-01T04:15:49.191Z,96.18
2023-11-01T04:17:53.382Z,95.56
2023-11-01T04:20:00.166Z,95.52
2023-11-01T04:22:03.550Z,96.52
2023-11-01T04:24:11.059Z,95.53
2023-11-01T04:26:14.565Z,96.69
2023-11-01T04:28:17.987Z,96.55
2023-11-01T04:30:21.129Z,96.37
2023-11-01T04:32:23.301Z,96.62
2023-11-01T04:34:26.900Z,95.77
2023-11-01T04:36:31.556Z,95.74
2023-11-01T04:38:35.009Z,95.67
2023-11-01T04:40:38.865Z,96.28
2023-11-01T04:42:42.925Z,96.38
2023-11-01T04:44:47.510Z,94.68
2023-11-01T04:46:51.158Z,95.14
2023-11-01T04:48:54.431Z,96.78
2023-11-01T04:51:02.183Z,96.65
2023-11-01T04:53:11.790Z,95.34
2023-11-01T04:55:15.768Z,95.88
2023-11-01T04:57:21.106Z,97.04
2023-11-01T04:59:43.241Z,97.16
2023-11-01T05:01:49.114Z,95.76
2023-11-01T05:03:57.783Z,96.26
2023-11-01T05:06:02.432Z,96.72
2023-11-01T05:08:26.956Z,96.82
2023-11-01T05:10:50.100Z,97.05
2023-11-01T05:13:13.186Z,96.50
2023-11-01T05:15:37.949Z,96.23
2023-11-01T05:17:41.519Z,95.57
2023-11-01T05:19:44.961Z,94.92
2023-11-01T05:21:47.490Z,95.62
2023-11-01T05:23:52.195Z,96.41
2023-11-01T05:25:55.934Z,94.61
2023-11-01T05:27:59.419Z,95.45
2023-11-01T05:30:02.721Z,95.88
2023-11-01T05:32:06.631Z,96.34
2023-11-01T05:34:14.729Z,96.29
2023-11-01T05:36:18.124Z,95.58
2023-11-01T05:38:22.471Z,96.37
2023-11-01T05:40:28.580Z,96.73
2023-11-01T05:42:33.792Z,96.73
2023-11-01T05:44:39.281Z,96.69
2023-11-01T05:46:43.654Z,95.03
2023-11-01T05:48:48.396Z,96.34
2023-11-01T05:50:52.060Z,97.80
2023-11-01T05:53:15.268Z,96.13
2023-11-01T05:55:25.858Z,97.98
2023-11-01T05:57:38.873Z,96.04
2023-11-01T05:59:55.806Z,97.76
2023-11-01T06:02:01.022Z,97.42
2023-11-01T06:04:06.425Z,97.45
2023-11-01T06:06:29.699Z,98.18
2023-11-01T06:08:53.045Z,98.32
2023-11-01T06:11:16.146Z,98.06
2023-11-01T06:13:22.754Z,97.42
2023-11-01T06:15:38.423Z,98.49
2023-11-01T06:18:01.684Z,97.90
2023-11-01T06:20:08.550Z,98.72
2023-11-01T06:22:17.802Z,99.23
2023-11-01T06:24:40.950Z,96.93
2023-11-01T06:26:46.096Z,97.15
2023-11-01T06:28:53.135Z,97.97
2023-11-01T06:30:58.820Z,96.91
2023-11-01T06:33:04.083Z,97.77
2023-11-01T06:35:09.433Z,98.35
2023-11-01T06:37:15.246Z,97.83
2023-11-01T06:39:39.115Z,97.82
2023-11-01T06:42:03.166Z,97.72
2023-11-01T06:44:27.766Z,97.30
2023-11-01T06:46:50.922Z,96.56
2023-11-01T06:49:00.822Z,97.63
2023-11-01T06:51:23.919Z,95.84
2023-11-01T06:53:32.494Z,96.73
2023-11-01T06:55:55.940Z,95.34
2023-11-01T06:58:19.235Z,95.64
2023-11-01T07:00:35.025Z,96.56
2023-11-01T07:02:44.464Z,95.73
2023-11-01T07:05:08.161Z,95.21
2023-11-01T07:07:19.320Z,95.15
2023-11-01T07:09:43.787Z,96.34
2023-11-01T07:12:06.761Z,96.05
2023-11-01T07:14:16.267Z,95.32
2023-11-01T07:16:42.802Z,97.43
2023-11-01T07:19:06.210Z,96.23
2023-11-01T07:21:29.331Z,97.75
2023-11-01T07:23:52.538Z,98.29
2023-11-01T07:25:59.536Z,96.30
2023-11-01T07:28:10.798Z,97.52
2023-11-01T07:30:33.955Z,96.38
2023-11-01T07:32:58.499Z,98.44
2023-11-01T07:35:05.677Z,96.18
2023-11-01T07:37:29.028Z,98.05
2023-11-01T07:39:37.035Z,97.69
2023-11-01T07:42:00.458Z,97.11
2023-11-01T07:44:06.196Z,98.52
2023-11-01T07:46:29.721Z,99.15
2023-11-01T07:48:36.397Z,98.83
2023-11-01T07:50:59.709Z,98.98
2023-11-01T07:53:04.080Z,97.22
2023-11-01T07:55:07.628Z,98.62
2023-11-01T07:57:10.958Z,97.60
2023-11-01T07:59:14.729Z,98.65
2023-11-01T08:01:18.396Z,99.17
2023-11-01T08:03:22.112Z,99.70
2023-11-01T08:05:26.971Z,97.19
2023-11-01T08:07:29.378Z,98.01
2023-11-01T08:09:32.689Z,98.21
2023-11-01T08:11:36.098Z,97.71
2023-11-01T08:13:39.372Z,96.62
2023-11-01T08:15:42.733Z,97.02
2023-11-01T08:17:45.895Z,95.99
2023-11-01T08:19:49.391Z,95.42
2023-11-01T08:21:54.174Z,94.85
2023-11-01T08:23:57.372Z,95.03
2023-11-01T08:25:59.844Z,94.27
2023-11-01T08:28:03.100Z,94.50
2023-11-01T08:30:07.623Z,94.98
2023-11-01T08:32:10.125Z,96.27
2023-11-01T08:34:13.357Z,94.91
2023-11-01T08:36:16.731Z,95.33
2023-11-01T08:38:21.331Z,95.35
2023-11-01T08:40:25.046Z,96.28
2023-11-01T08:42:30.119Z,94.84
2023-11-01T08:44:33.325Z,95.24
2023-11-01T08:46:36.635Z,95.28
2023-11-01T08:48:39.997Z,95.21
2023-11-01T08:50:43.301Z,93.98
2023-11-01T08:52:47.056Z,95.15
2023-11-01T08:54:51.727Z,93.54
2023-11-01T08:56:56.333Z,93.96
2023-11-01T08:58:59.574Z,92.41
2023-11-01T09:01:02.814Z,93.22
2023-11-01T09:03:06.106Z,90.65
2023-11-01T09:05:10.189Z,88.92
2023-11-01T09:07:12.435Z,89.47
2023-11-01T09:09:15.750Z,86.95
2023-11-01T09:11:24.377Z,87.28
2023-11-01T09:13:27.814Z,87.08
2023-11-01T09:15:31.035Z,87.00
2023-11-01T09:17:34.372Z,85.24
2023-11-01T09:19:37.559Z,84.39
2023-11-01T09:21:40.844Z,83.94
2023-11-01T09:23:43.956Z,81.58
2023-11-01T09:25:47.239Z,82.08
2023-11-01T09:27:51.735Z,81.62
2023-11-01T09:29:55.017Z,82.52
2023-11-01T09:31:57.248Z,79.22
2023-11-01T09:34:00.533Z,80.43
2023-11-01T09:36:03.751Z,79.50
2023-11-01T09:38:07.008Z,80.48
2023-11-01T09:40:12.731Z,77.53
2023-11-01T09:42:21.298Z,81.56
2023-11-01T09:44:25.759Z,80.47
2023-11-01T09:46:29.113Z,81.61
2023-11-01T09:48:32.604Z,80.06
2023-11-01T09:50:38.234Z,80.39
2023-11-01T09:52:41.865Z,78.32
2023-11-01T09:54:45.071Z,79.37
2023-11-01T09:56:48.652Z,78.87
2023-11-01T09:58:51.836Z,78.94
2023-11-01T10:00:59.181Z,78.25
2023-11-01T10:03:02.449Z,77.67
2023-11-01T10:05:06.273Z,77.95
2023-11-01T10:07:10.473Z,78.90
2023-11-01T10:09:13.000Z,78.93
2023-11-01T10:11:19.108Z,80.06
2023-11-01T10:13:22.260Z,81.08
2023-11-01T10:15:25.380Z,78.37
2023-11-01T10:17:30.141Z,79.37
2023-11-01T10:19:33.369Z,76.87
2023-11-01T10:21:35.662Z,76.31
2023-11-01T10:23:39.057Z,75.90
2023-11-01T10:25:46.247Z,76.94
2023-11-01T10:27:48.530Z,75.56
2023-11-01T10:29:51.874Z,75.93
2023-11-01T10:31:55.526Z,74.32
2023-11-01T10:34:00.678Z,76.23
2023-11-01T10:36:05.269Z,77.13
2023-11-01T10:38:09.139Z,75.21
2023-11-01T10:40:12.990Z,73.98
2023-11-01T10:42:19.074Z,74.57
2023-11-01T10:44:23.923Z,75.56
2023-11-01T10:46:27.261Z,75.37
2023-11-01T10:48:31.243Z,75.87
2023-11-01T10:50:36.156Z,75.46
2023-11-01T10:52:39.136Z,75.58
2023-11-01T10:54:45.460Z,75.37
2023-11-01T10:56:49.457Z,75.06
2023-11-01T10:58:54.670Z,75.26
2023-11-01T11:01:03.631Z,75.43
2023-11-01T11:03:12.624Z,75.20
2023-11-01T11:05:17.110Z,74.57
2023-11-01T11:07:28.584Z,75.80
2023-11-01T11:09:31.951Z,76.17
2023-11-01T11:11:35.203Z,75.82
2023-11-01T11:13:37.333Z,77.21
2023-11-01T11:16:01.764Z,77.55
2023-11-01T11:18:09.087Z,77.48
2023-11-01T11:20:13.042Z,74.57
2023-11-01T11:22:15.215Z,73.73
2023-11-01T11:24:58.151Z,74.50
2023-11-01T11:27:01.356Z,74.12
2023-11-01T11:29:06.181Z,74.44
2023-11-01T11:31:10.077Z,73.56
2023-11-01T11:33:13.712Z,73.89
2023-11-01T11:35:20.681Z,73.44
2023-11-01T11:37:30.353Z,73.58
2023-11-01T11:40:08.451Z,73.47
2023-11-01T11:42:51.057Z,73.77
2023-11-01T11:45:02.929Z,74.65
2023-11-01T11:47:30.692Z,74.29
2023-11-01T11:49:38.682Z,75.46
2023-11-01T11:51:51.292Z,75.37
2023-11-01T11:53:55.035Z,74.39
2023-11-01T11:55:59.746Z,72.61
2023-11-01T11:58:03.651Z,72.72
2023-11-01T12:00:09.131Z,73.66
2023-11-01T12:02:13.681Z,75.35
2023-11-01T12:04:17.815Z,72.34
2023-11-01T12:06:22.041Z,71.88
2023-11-01T12:08:39.268Z,70.87
2023-11-01T12:10:51.542Z,71.06
2023-11-01T12:12:57.698Z,72.01
2023-11-01T12:15:01.634Z,72.57
2023-11-01T12:17:06.438Z,72.75
2023-11-01T12:19:14.721Z,72.51
2023-11-01T12:21:17.881Z,72.83
2023-11-01T12:23:20.968Z,72.54
2023-11-01T12:25:25.577Z,74.54
2023-11-01T12:27:32.062Z,73.60
2023-11-01T12:29:38.577Z,73.79
2023-11-01T12:31:42.917Z,73.46
2023-11-01T12:33:46.162Z,73.26
2023-11-01T12:35:49.437Z,73.76
2023-11-01T12:37:52.536Z,73.53
2023-11-01T12:40:01.541Z,72.88
2023-11-01T12:42:26.755Z,72.78
2023-11-01T12:44:30.056Z,74.55
2023-11-01T12:46:37.317Z,72.31
2023-11-01T12:48:43.253Z,71.88
2023-11-01T12:50:46.451Z,71.44
2023-11-01T12:52:50.160Z,71.33
2023-11-01T12:54:52.419Z,72.89
2023-11-01T12:56:55.517Z,71.18
2023-11-01T12:58:58.652Z,71.37
2023-11-01T13:01:02.286Z,70.76
2023-11-01T13:03:07.057Z,71.65
2023-11-01T13:05:11.941Z,72.29
2023-11-01T13:07:15.077Z,72.35
2023-11-01T13:09:17.341Z,71.91
2023-11-01T13:11:21.317Z,71.69
2023-11-01T13:13:24.836Z,71.82
2023-11-01T13:15:28.477Z,70.87
2023-11-01T13:17:31.809Z,71.30
2023-11-01T13:19:37.037Z,71.79
2023-11-01T13:21:41.350Z,72.06
2023-11-01T13:23:45.593Z,71.62
2023-11-01T13:25:48.806Z,71.92
2023-11-01T13:27:52.013Z,72.36
2023-11-01T13:29:54.268Z,72.64
2023-11-01T13:31:57.480Z,73.25
2023-11-01T13:34:00.689Z,73.20
2023-11-01T13:36:05.898Z,73.65
2023-11-01T13:38:09.052Z,72.95
2023-11-01T13:40:12.802Z,73.30
2023-11-01T13:42:16.772Z,72.98
2023-11-01T13:44:20.648Z,73.91
2023-11-01T13:46:24.524Z,74.30
2023-11-01T13:48:27.665Z,73.31
2023-11-01T13:50:31.077Z,72.82
2023-11-01T13:52:36.915Z,73.16
2023-11-01T13:54:40.503Z,72.53
2023-11-01T13:56:43.699Z,73.36
2023-11-01T13:58:51.399Z,72.29
2023-11-01T14:00:54.683Z,71.69
2023-11-01T14:03:01.065Z,72.00
2023-11-01T14:05:04.589Z,72.08
2023-11-01T14:07:07.776Z,71.45
2023-11-01T14:09:13.360Z,71.30
2023-11-01T14:11:17.044Z,71.36
2023-11-01T14:13:19.460Z,72.60
2023-11-01T14:15:22.891Z,71.38
2023-11-01T14:17:26.626Z,72.70
2023-11-01T14:19:30.129Z,72.12
2023-11-01T14:21:33.322Z,72.63
2023-11-01T14:23:35.701Z,73.23
2023-11-01T14:25:40.293Z,71.94
2023-11-01T14:27:44.408Z,72.29
2023-11-01T14:29:47.694Z,73.01
2023-11-01T14:31:50.872Z,72.57
2023-11-01T14:33:54.137Z,72.31
2023-11-01T14:35:56.900Z,72.03
2023-11-01T14:38:00.539Z,72.47
2023-11-01T14:40:04.254Z,73.55
2023-11-01T14:42:10.053Z,72.63
2023-11-01T14:44:13.397Z,70.87
2023-11-01T14:46:16.797Z,70.44
2023-11-01T14:48:20.104Z,70.61
2023-11-01T14:50:22.234Z,71.32
2023-11-01T14:52:27.519Z,71.52
2023-11-01T14:54:31.368Z,71.12
2023-11-01T14:56:37.576Z,71.34
2023-11-01T14:58:42.211Z,72.54
2023-11-01T15:00:47.138Z,71.51
2023-11-01T15:02:50.459Z,71.18
2023-11-01T15:04:53.621Z,71.12
2023-11-01T15:06:56.847Z,69.02
2023-11-01T15:09:00.014Z,69.71
2023-11-01T15:11:04.406Z,68.83
2023-11-01T15:13:08.640Z,69.92
2023-11-01T15:15:13.427Z,67.29
2023-11-01T15:17:16.691Z,67.64
2023-11-01T15:19:19.956Z,68.91
2023-11-01T15:21:23.708Z,67.96
2023-11-01T15:23:26.921Z,69.99
2023-11-01T15:25:30.233Z,68.45
2023-11-01T15:27:33.362Z,69.12
2023-11-01T15:29:36.675Z,69.63
2023-11-01T15:31:41.208Z,68.26
2023-11-01T15:33:44.479Z,70.06
2023-11-01T15:35:47.809Z,69.27
2023-11-01T15:37:51.004Z,69.17
2023-11-01T15:39:53.612Z,69.43
2023-11-01T15:41:56.818Z,70.40
2023-11-01T15:44:00.041Z,70.76
2023-11-01T15:46:03.281Z,71.59
2023-11-01T15:48:08.745Z,70.31
2023-11-01T15:50:12.115Z,70.69
2023-11-01T15:52:14.365Z,72.02
2023-11-01T15:54:17.926Z,72.50
2023-11-01T15:56:20.136Z,72.44
2023-11-01T15:58:23.360Z,73.17
2023-11-01T16:00:26.686Z,71.93
2023-11-01T16:02:32.933Z,72.87
2023-11-01T16:04:37.724Z,71.50
2023-11-01T16:06:41.031Z,71.92
2023-11-01T16:08:43.392Z,72.10
2023-11-01T16:10:46.784Z,73.65
2023-11-01T16:12:50.105Z,72.27
2023-11-01T16:14:55.277Z,70.29
2023-11-01T16:16:59.283Z,72.81
2023-11-01T16:19:01.538Z,71.81
2023-11-01T16:21:07.212Z,70.96
2023-11-01T16:23:10.589Z,71.98
2023-11-01T16:25:14.298Z,72.89
2023-11-01T16:27:19.437Z,73.15
2023-11-01T16:29:22.614Z,72.25
2023-11-01T16:31:24.848Z,71.80
2023-11-01T16:33:28.201Z,73.04
2023-11-01T16:35:32.850Z,75.03
2023-11-01T16:37:37.538Z,74.59
2023-11-01T16:39:40.847Z,75.32
2023-11-01T16:41:50.070Z,74.77
2023-11-01T16:43:53.721Z,74.37
2023-11-01T16:45:57.299Z,74.40
2023-11-01T16:48:00.704Z,74.44
2023-11-01T16:50:03.902Z,75.15
2023-11-01T16:52:07.625Z,75.52
2023-11-01T16:54:12.531Z,75.01
2023-11-01T16:56:16.111Z,73.24
2023-11-01T16:58:19.342Z,73.63
2023-11-01T17:00:24.907Z,74.81
2023-11-01T17:02:31.492Z,74.28
2023-11-01T17:04:37.541Z,74.16
2023-11-01T17:06:40.986Z,74.57
2023-11-01T17:08:45.107Z,75.30
2023-11-01T17:10:52.645Z,74.84
2023-11-01T17:12:56.039Z,74.79
2023-11-01T17:14:59.859Z,76.25
2023-11-01T17:17:03.262Z,76.25
2023-11-01T17:19:08.104Z,74.74
2023-11-01T17:21:11.609Z,75.27
2023-11-01T17:23:16.296Z,75.85
2023-11-01T17:26:11.988Z,76.07
2023-11-01T17:28:21.904Z,74.16
2023-11-01T17:30:25.239Z,75.96
2023-11-01T17:32:28.737Z,75.37
2023-11-01T17:34:33.141Z,75.71
2023-11-01T17:36:36.730Z,73.86
2023-11-01T17:38:41.799Z,74.31
2023-11-01T17:40:44.373Z,74.20
2023-11-01T17:42:47.928Z,74.33
2023-11-01T17:44:53.611Z,73.86
2023-11-01T17:46:57.430Z,73.28
2023-11-01T17:49:02.814Z,74.76
2023-11-01T17:51:05.850Z,72.43
2023-11-01T17:53:09.133Z,72.81
2023-11-01T17:55:15.001Z,73.01
2023-11-01T17:57:18.666Z,74.25
2023-11-01T17:59:23.499Z,73.31
2023-11-01T18:01:28.750Z,73.88
2023-11-01T18:03:32.149Z,73.45
2023-11-01T18:05:37.663Z,72.91
2023-11-01T18:07:40.973Z,72.65
2023-11-01T18:09:47.054Z,73.01
2023-11-01T18:11:52.734Z,73.28
2023-11-01T18:13:56.141Z,72.06
2023-11-01T18:15:59.529Z,74.04
2023-11-01T18:18:04.276Z,72.41
2023-11-01T18:20:11.512Z,73.68
2023-11-01T18:22:40.238Z,73.86
2023-11-01T18:24:44.327Z,72.87
2023-11-01T18:26:47.698Z,73.54
2023-11-01T18:28:51.494Z,72.60
2023-11-01T18:30:54.710Z,71.63
2023-11-01T18:32:58.851Z,73.35
2023-11-01T18:35:04.217Z,76.20
2023-11-01T18:37:07.603Z,78.06
2023-11-01T18:39:11.266Z,78.52
2023-11-01T18:41:14.003Z,76.45
2023-11-01T18:43:17.351Z,76.90
2023-11-01T18:45:20.611Z,77.51
2023-11-01T18:47:25.839Z,75.62
2023-11-01T18:49:54.693Z,74.21
2023-11-01T18:52:01.099Z,72.13
2023-11-01T18:54:03.605Z,72.96
2023-11-01T18:56:07.274Z,74.48
2023-11-01T18:58:10.526Z,75.23
2023-11-01T19:00:21.498Z,74.98
2023-11-01T19:03:01.111Z,77.21
2023-11-01T19:05:07.955Z,76.82
2023-11-01T19:07:13.243Z,77.04
2023-11-01T19:09:17.503Z,76.66
2023-11-01T19:11:20.709Z,79.29
2023-11-01T19:13:25.740Z,78.13
2023-11-01T19:16:02.782Z,76.67
2023-11-01T19:18:06.215Z,75.58
2023-11-01T19:20:11.040Z,73.65
2023-11-01T19:22:15.632Z,72.09
2023-11-01T19:24:21.819Z,72.63
2023-11-01T19:26:25.888Z,73.68
2023-11-01T19:28:29.944Z,72.96
2023-11-01T19:30:33.108Z,72.57
2023-11-01T19:32:36.290Z,73.17
2023-11-01T19:34:40.057Z,72.29
2023-11-01T19:36:47.559Z,73.15
2023-11-01T19:38:52.048Z,74.11
2023-11-01T19:40:56.332Z,74.47
2023-11-01T19:43:02.964Z,73.70
2023-11-01T19:45:07.229Z,74.15
2023-11-01T19:47:10.439Z,74.68
2023-11-01T19:49:13.809Z,74.50
2023-11-01T19:51:17.279Z,74.46
2023-11-01T19:53:20.721Z,75.19
2023-11-01T19:55:24.411Z,74.12
2023-11-01T19:57:27.625Z,74.02
2023-11-01T19:59:34.256Z,73.66
2023-11-01T20:01:37.846Z,74.55
2023-11-01T20:03:41.147Z,73.83
2023-11-01T20:05:44.488Z,74.63
2023-11-01T20:07:47.824Z,73.59
2023-11-01T20:09:51.577Z,73.59
2023-11-01T20:11:56.239Z,73.55
2023-11-01T20:14:01.192Z,73.26
2023-11-01T20:16:06.027Z,73.18
2023-11-01T20:18:12.070Z,73.83
2023-11-01T20:20:14.549Z,74.04
2023-11-01T20:22:18.101Z,73.92
2023-11-01T20:24:21.637Z,74.58
2023-11-01T20:26:25.700Z,73.85
2023-11-01T20:28:30.654Z,74.06
2023-11-01T20:30:35.401Z,74.11
2023-11-01T20:32:38.785Z,74.49
2023-11-01T20:34:42.027Z,75.49
2023-11-01T20:36:47.683Z,75.47
2023-11-01T20:38:50.879Z,74.89
2023-11-01T20:40:54.083Z,75.43
2023-11-01T20:42:57.257Z,75.69
2023-11-01T20:45:01.953Z,76.08
2023-11-01T20:47:06.537Z,75.51
2023-11-01T20:49:11.227Z,76.25
2023-11-01T20:51:21.307Z,77.27
2023-11-01T20:53:24.537Z,77.14
2023-11-01T20:55:27.860Z,76.97
2023-11-01T20:57:32.742Z,77.29
2023-11-01T20:59:37.489Z,77.48
2023-11-01T21:01:42.061Z,77.94
2023-11-01T21:03:45.953Z,77.89
2023-11-01T21:05:50.144Z,77.72
2023-11-01T21:07:55.418Z,78.27
2023-11-01T21:09:59.506Z,78.99
2023-11-01T21:12:02.737Z,78.87
2023-11-01T21:14:05.998Z,79.04
2023-11-01T21:16:10.003Z,79.16
2023-11-01T21:18:14.676Z,80.03
2023-11-01T21:20:18.087Z,79.57
2023-11-01T21:22:21.270Z,79.33
2023-11-01T21:24:24.501Z,78.95
2023-11-01T21:26:27.795Z,78.85
2023-11-01T21:28:31.013Z,80.01
2023-11-01T21:30:34.221Z,79.53
2023-11-01T21:32:37.541Z,79.44
2023-11-01T21:34:42.363Z,80.19
2023-11-01T21:36:46.129Z,79.56
2023-11-01T21:38:57.033Z,79.82
2023-11-01T21:41:00.280Z,78.58
2023-11-01T21:43:02.457Z,79.70
2023-11-01T21:45:07.972Z,80.71
2023-11-01T21:47:13.217Z,79.95
2023-11-01T21:49:18.269Z,80.13
2023-11-01T21:51:22.133Z,80.01
2023-11-01T21:53:25.534Z,80.48
2023-11-01T21:55:49.845Z,80.27
2023-11-01T21:57:53.072Z,80.27
2023-11-01T21:59:59.704Z,81.49
2023-11-01T22:02:03.095Z,81.20
2023-11-01T22:04:21.204Z,80.81
2023-11-01T22:06:30.155Z,79.88
2023-11-01T22:08:55.923Z,79.87
2023-11-01T22:10:59.120Z,80.65
2023-11-01T22:13:02.742Z,80.61
2023-11-01T22:15:06.708Z,80.09
2023-11-01T22:17:11.716Z,79.76
2023-11-01T22:19:32.391Z,80.28
2023-11-01T22:21:38.505Z,81.35
2023-11-01T22:23:40.674Z,81.80
2023-11-01T22:25:43.752Z,81.02
2023-11-01T22:27:49.481Z,80.41
2023-11-01T22:29:53.430Z,80.59
2023-11-01T22:31:56.617Z,81.75
2023-11-01T22:33:59.846Z,80.98
2023-11-01T22:36:03.832Z,81.78
2023-11-01T22:38:08.661Z,80.39
2023-11-01T22:40:14.724Z,81.62
2023-11-01T22:42:19.783Z,80.60
2023-11-01T22:44:22.080Z,80.18
2023-11-01T22:46:25.163Z,81.46
2023-11-01T22:48:28.410Z,80.47
2023-11-01T22:50:31.668Z,80.79
2023-11-01T22:52:34.797Z,81.77
2023-11-01T22:54:39.820Z,81.15
2023-11-01T22:56:41.988Z,82.75
2023-11-01T22:58:45.193Z,81.88
2023-11-01T23:00:49.536Z,81.93
2023-11-01T23:02:51.814Z,82.61
2023-11-01T23:04:55.046Z,83.76
2023-11-01T23:06:58.177Z,83.27
2023-11-01T23:09:00.327Z,84.13
2023-11-01T23:11:05.612Z,82.67
2023-11-01T23:13:08.735Z,83.67
2023-11-01T23:15:12.151Z,82.24
2023-11-01T23:17:15.383Z,84.11
2023-11-01T23:19:19.578Z,83.72
2023-11-01T23:21:21.977Z,83.58
2023-11-01T23:23:25.655Z,85.35
2023-11-01T23:25:30.949Z,84.75
2023-11-01T23:27:36.424Z,85.40
2023-11-01T23:29:39.998Z,84.66
2023-11-01T23:31:43.148Z,85.12
2023-11-01T23:33:47.092Z,87.02
2023-11-01T23:35:50.841Z,86.34
2023-11-01T23:37:56.280Z,87.98
2023-11-01T23:39:59.478Z,87.93
2023-11-01T23:42:03.431Z,87.19
2023-11-01T23:44:08.597Z,85.56
2023-11-01T23:46:14.271Z,86.90
2023-11-01T23:48:18.222Z,87.73
2023-11-01T23:50:33.126Z,87.58
2023-11-01T23:52:37.294Z,88.40
2023-11-01T23:54:39.437Z,87.18
2023-11-01T23:56:43.871Z,88.91
2023-11-01T23:58:47.340Z,88.13
